createdAt,value
2022-07-25T00:01:42.169Z,52.25
2022-07-25T00:04:12.559Z,52.12
2022-07-25T00:06:43.137Z,52.00
2022-07-25T00:09:12.125Z,51.87
2022-07-25T00:11:42.572Z,51.99
2022-07-25T00:14:11.581Z,51.60
2022-07-25T00:16:40.930Z,52.04
2022-07-25T00:19:09.708Z,52.31
2022-07-25T00:21:38.554Z,52.22
2022-07-25T00:24:08.606Z,52.35
2022-07-25T00:26:40.300Z,52.49
2022-07-25T00:29:11.178Z,52.11
2022-07-25T00:31:40.118Z,52.06
2022-07-25T00:34:09.782Z,52.22
2022-07-25T00:36:38.722Z,52.20
2022-07-25T00:39:07.801Z,52.55
2022-07-25T00:41:37.189Z,52.94
2022-07-25T00:44:06.526Z,52.54
2022-07-25T00:46:40.603Z,52.86
2022-07-25T00:49:10.313Z,52.59
2022-07-25T00:51:38.984Z,52.36
2022-07-25T00:54:08.612Z,52.50
2022-07-25T00:56:38.036Z,52.65
2022-07-25T00:59:07.183Z,52.48
2022-07-25T01:01:37.505Z,52.99
2022-07-25T01:04:08.086Z,53.44
2022-07-25T01:06:37.449Z,53.45
2022-07-25T01:09:06.315Z,52.99
2022-07-25T01:11:35.427Z,53.52
2022-07-25T01:14:05.641Z,53.04
2022-07-25T01:16:34.831Z,53.35
2022-07-25T01:19:05.383Z,53.74
2022-07-25T01:21:40.140Z,53.90
2022-07-25T01:24:10.673Z,53.96
2022-07-25T01:26:39.580Z,53.66
2022-07-25T01:29:08.485Z,54.24
2022-07-25T01:31:37.515Z,54.63
2022-07-25T01:34:06.428Z,54.88
2022-07-25T01:36:36.841Z,55.32
2022-07-25T01:39:06.054Z,55.53
2022-07-25T01:41:34.684Z,55.61
2022-07-25T01:44:03.585Z,55.52
2022-07-25T01:46:32.871Z,55.41
2022-07-25T01:49:01.929Z,55.14
2022-07-25T01:51:31.126Z,55.21
2022-07-25T01:54:01.151Z,55.49
2022-07-25T01:56:32.153Z,54.86
2022-07-25T01:59:00.987Z,55.09
2022-07-25T02:01:29.978Z,55.46
2022-07-25T02:03:58.821Z,55.44
2022-07-25T02:06:27.741Z,55.41
2022-07-25T02:08:56.899Z,55.37
2022-07-25T02:11:27.106Z,55.64
2022-07-25T02:13:55.721Z,55.17
2022-07-25T02:16:28.832Z,55.24
2022-07-25T02:18:58.331Z,55.08
2022-07-25T02:21:27.319Z,55.47
2022-07-25T02:23:56.058Z,55.40
2022-07-25T02:26:26.410Z,55.28
2022-07-25T02:28:55.341Z,55.09
2022-07-25T02:31:24.136Z,55.36
2022-07-25T02:33:53.090Z,55.49
2022-07-25T02:36:21.836Z,55.55
2022-07-25T02:38:50.689Z,55.61
2022-07-25T02:41:19.377Z,55.70
2022-07-25T02:43:49.593Z,55.73
2022-07-25T02:46:18.634Z,55.30
2022-07-25T02:48:48.014Z,55.61
2022-07-25T02:51:18.812Z,55.91
2022-07-25T02:53:57.203Z,55.41
2022-07-25T02:56:29.735Z,55.42
2022-07-25T02:59:00.782Z,55.95
2022-07-25T03:01:29.522Z,55.40
2022-07-25T03:03:58.311Z,55.24
2022-07-25T03:06:27.530Z,55.17
2022-07-25T03:08:56.689Z,55.19
2022-07-25T03:11:25.840Z,55.19
2022-07-25T03:13:55.136Z,54.99
2022-07-25T03:16:25.435Z,54.80
2022-07-25T03:18:54.518Z,54.55
2022-07-25T03:21:23.289Z,54.58
2022-07-25T03:24:03.761Z,54.50
2022-07-25T03:26:32.856Z,54.17
2022-07-25T03:29:01.555Z,54.04
2022-07-25T03:31:31.952Z,54.57
2022-07-25T03:34:01.209Z,54.09
2022-07-25T03:36:30.270Z,54.49
2022-07-25T03:38:58.945Z,54.58
2022-07-25T03:41:28.561Z,54.40
2022-07-25T03:43:57.345Z,54.33
2022-07-25T03:46:26.251Z,54.46
2022-07-25T03:48:56.755Z,54.46
2022-07-25T03:51:25.391Z,54.56
2022-07-25T03:54:03.546Z,54.85
2022-07-25T03:56:34.086Z,54.75
2022-07-25T03:59:02.680Z,54.76
2022-07-25T04:01:31.427Z,54.69
2022-07-25T04:04:02.711Z,55.24
2022-07-25T04:06:32.064Z,54.75
2022-07-25T04:09:01.174Z,55.01
2022-07-25T04:11:31.151Z,55.13
2022-07-25T04:14:00.189Z,55.26
2022-07-25T04:16:30.602Z,54.60
2022-07-25T04:18:59.653Z,54.44
2022-07-25T04:21:31.866Z,54.18
2022-07-25T04:24:00.755Z,54.50
2022-07-25T04:26:30.005Z,54.24
2022-07-25T04:28:59.086Z,54.28
2022-07-25T04:31:27.898Z,53.96
2022-07-25T04:33:56.776Z,54.02
2022-07-25T04:36:27.051Z,54.24
2022-07-25T04:38:57.233Z,53.40
2022-07-25T04:41:26.015Z,52.65
2022-07-25T04:43:54.645Z,51.82
2022-07-25T04:46:23.935Z,51.74
2022-07-25T04:48:53.502Z,51.09
2022-07-25T04:51:22.296Z,50.26
2022-07-25T04:53:51.098Z,50.25
2022-07-25T04:56:21.417Z,49.80
2022-07-25T04:58:50.656Z,49.14
2022-07-25T05:01:19.584Z,49.03
2022-07-25T05:03:50.505Z,49.04
2022-07-25T05:06:20.142Z,48.55
2022-07-25T05:08:49.053Z,48.04
2022-07-25T05:11:17.850Z,47.45
2022-07-25T05:13:48.022Z,47.64
2022-07-25T05:16:17.003Z,47.25
2022-07-25T05:18:46.299Z,46.51
2022-07-25T05:21:15.160Z,46.03
2022-07-25T05:23:44.309Z,46.18
2022-07-25T05:26:13.541Z,46.72
2022-07-25T05:28:42.504Z,46.94
2022-07-25T05:31:13.152Z,47.64
2022-07-25T05:33:42.679Z,46.98
2022-07-25T05:36:11.889Z,46.92
2022-07-25T05:38:40.839Z,47.05
2022-07-25T05:41:09.909Z,46.22
2022-07-25T05:43:38.655Z,46.12
2022-07-25T05:46:10.145Z,44.90
2022-07-25T05:48:40.315Z,44.62
2022-07-25T05:51:09.445Z,43.52
2022-07-25T05:53:38.282Z,42.79
2022-07-25T05:56:07.573Z,42.21
2022-07-25T05:58:40.761Z,42.24
2022-07-25T06:01:10.194Z,43.19
2022-07-25T06:03:40.728Z,43.27
2022-07-25T06:06:10.424Z,43.50
2022-07-25T06:08:39.754Z,43.10
2022-07-25T06:11:09.400Z,42.28
2022-07-25T06:13:39.066Z,41.62
2022-07-25T06:16:10.084Z,41.16
2022-07-25T06:18:40.409Z,42.00
2022-07-25T06:21:09.275Z,41.21
2022-07-25T06:23:37.884Z,41.63
2022-07-25T06:26:10.554Z,41.59
2022-07-25T06:28:39.840Z,40.38
2022-07-25T06:31:09.508Z,40.12
2022-07-25T06:33:40.358Z,40.30
2022-07-25T06:36:10.705Z,40.30
2022-07-25T06:38:39.399Z,40.58
2022-07-25T06:41:08.431Z,41.22
2022-07-25T06:43:37.146Z,40.71
2022-07-25T06:46:06.199Z,41.08
2022-07-25T06:48:35.108Z,42.15
2022-07-25T06:51:06.004Z,42.55
2022-07-25T06:53:34.980Z,42.24
2022-07-25T06:56:03.733Z,41.99
2022-07-25T06:58:32.529Z,41.36
2022-07-25T07:01:02.457Z,41.19
2022-07-25T07:03:32.462Z,40.93
2022-07-25T07:06:02.145Z,40.49
2022-07-25T07:08:32.119Z,39.79
2022-07-25T07:11:01.672Z,40.36
2022-07-25T07:13:30.456Z,41.11
2022-07-25T07:15:59.477Z,42.53
2022-07-25T07:18:28.758Z,42.31
2022-07-25T07:20:57.672Z,41.20
2022-07-25T07:23:26.642Z,40.31
2022-07-25T07:25:59.510Z,39.41
2022-07-25T07:28:28.555Z,37.32
2022-07-25T07:33:46.267Z,37.93
2022-07-25T07:36:15.427Z,36.78
2022-07-25T07:38:45.785Z,38.44
2022-07-25T07:41:16.536Z,37.62
2022-07-25T07:43:45.521Z,37.46
2022-07-25T07:46:14.665Z,37.44
2022-07-25T07:48:44.739Z,38.12
2022-07-25T07:51:14.018Z,35.63
2022-07-25T07:53:59.412Z,33.42
2022-07-25T07:56:29.577Z,32.82
2022-07-25T07:58:58.592Z,31.19
2022-07-25T08:01:27.534Z,31.35
2022-07-25T08:03:56.965Z,31.00
2022-07-25T08:06:27.936Z,29.68
2022-07-25T08:08:57.097Z,28.51
2022-07-25T08:11:26.658Z,27.43
2022-07-25T08:13:56.991Z,28.09
2022-07-25T08:16:26.473Z,28.59
2022-07-25T08:18:55.421Z,30.03
2022-07-25T08:21:24.901Z,30.52
2022-07-25T08:23:55.006Z,29.45
2022-07-25T08:26:23.973Z,28.47
2022-07-25T08:29:17.191Z,27.36
2022-07-25T08:31:43.345Z,27.29
2022-07-25T08:34:12.593Z,28.51
2022-07-25T08:36:41.766Z,27.81
2022-07-25T08:39:14.026Z,30.76
2022-07-25T08:41:43.556Z,32.97
2022-07-25T08:44:19.059Z,35.21
2022-07-25T08:46:50.337Z,34.90
2022-07-25T08:49:19.585Z,33.58
2022-07-25T08:51:51.068Z,30.97
2022-07-25T08:54:22.871Z,29.02
2022-07-25T08:56:52.020Z,26.02
2022-07-25T08:59:21.924Z,26.04
2022-07-25T09:01:52.574Z,26.43
2022-07-25T09:04:22.242Z,30.30
2022-07-25T09:06:52.933Z,30.36
2022-07-25T09:09:32.180Z,27.69
2022-07-25T09:12:01.677Z,28.54
2022-07-25T09:14:30.995Z,30.25
2022-07-25T09:17:21.803Z,33.05
2022-07-25T09:19:55.063Z,34.98
2022-07-25T09:22:25.048Z,35.19
2022-07-25T09:24:54.184Z,36.29
2022-07-25T09:27:23.617Z,33.69
2022-07-25T09:29:53.504Z,29.35
2022-07-25T09:32:25.548Z,29.44
2022-07-25T09:34:54.543Z,28.41
2022-07-25T09:37:29.082Z,27.80
2022-07-25T09:39:58.289Z,26.58
2022-07-25T09:42:29.200Z,26.71
2022-07-25T09:45:10.245Z,26.47
2022-07-25T09:47:52.585Z,25.77
2022-07-25T09:50:23.422Z,26.64
2022-07-25T09:52:52.698Z,27.48
2022-07-25T09:55:23.566Z,31.10
2022-07-25T09:57:53.312Z,29.72
2022-07-25T10:00:24.738Z,32.80
2022-07-25T10:03:11.834Z,34.10
2022-07-25T10:06:03.827Z,32.22
2022-07-25T10:08:38.432Z,29.54
2022-07-25T10:11:09.452Z,28.33
2022-07-25T10:13:39.545Z,27.30
2022-07-25T10:16:18.030Z,26.76
2022-07-25T10:18:54.108Z,25.55
2022-07-25T10:21:27.612Z,27.04
2022-07-25T10:24:04.230Z,28.73
2022-07-25T10:26:36.386Z,27.78
2022-07-25T10:29:10.430Z,26.55
2022-07-25T10:31:49.393Z,29.22
2022-07-25T10:34:32.036Z,31.76
2022-07-25T10:37:13.571Z,29.50
2022-07-25T10:39:44.960Z,27.23
2022-07-25T10:42:18.776Z,28.24
2022-07-25T10:44:50.624Z,27.13
2022-07-25T10:47:20.173Z,25.52
2022-07-25T10:50:19.023Z,27.33
2022-07-25T10:53:01.182Z,30.13
2022-07-25T10:55:30.725Z,31.63
2022-07-25T10:58:21.604Z,32.83
2022-07-25T11:00:51.434Z,29.82
2022-07-25T11:03:22.262Z,29.57
2022-07-25T11:05:54.960Z,30.07
2022-07-25T11:08:33.431Z,31.38
2022-07-25T11:11:02.686Z,33.34
2022-07-25T11:13:34.455Z,34.89
2022-07-25T11:16:03.870Z,35.28
2022-07-25T11:18:36.847Z,34.29
2022-07-25T11:21:10.869Z,30.43
2022-07-25T11:23:42.218Z,28.00
2022-07-25T11:26:13.527Z,25.62
2022-07-25T11:28:47.961Z,25.54
2022-07-25T11:31:19.622Z,25.67
2022-07-25T11:33:54.490Z,26.27
2022-07-25T11:36:25.093Z,27.61
2022-07-25T11:38:54.124Z,26.71
2022-07-25T11:41:30.957Z,28.77
2022-07-25T11:44:00.509Z,27.78
2022-07-25T11:46:31.074Z,26.94
2022-07-25T11:49:08.660Z,27.08
2022-07-25T11:51:41.913Z,26.63
2022-07-25T11:54:13.553Z,25.29
2022-07-25T11:56:44.603Z,23.89
2022-07-25T11:59:13.944Z,23.68
2022-07-25T12:01:45.302Z,23.63
2022-07-25T12:04:16.738Z,23.92
2022-07-25T12:06:49.716Z,25.94
2022-07-25T12:09:20.333Z,26.54
2022-07-25T12:11:50.660Z,26.64
2022-07-25T12:14:19.826Z,27.65
2022-07-25T12:16:48.865Z,27.09
2022-07-25T12:19:22.515Z,27.12
2022-07-25T12:21:53.144Z,25.53
2022-07-25T12:24:22.093Z,24.43
2022-07-25T12:26:51.463Z,24.44
2022-07-25T12:29:20.752Z,24.71
2022-07-25T12:31:49.778Z,24.40
2022-07-25T12:34:18.551Z,26.64
2022-07-25T12:36:47.216Z,29.80
2022-07-25T12:39:18.161Z,32.22
2022-07-25T12:41:46.901Z,31.09
2022-07-25T12:44:16.097Z,34.15
2022-07-25T12:46:49.443Z,34.95
2022-07-25T12:49:18.746Z,35.30
2022-07-25T12:51:48.154Z,34.48
2022-07-25T12:54:22.265Z,35.00
2022-07-25T12:56:51.883Z,35.60
2022-07-25T12:59:20.989Z,35.76
2022-07-25T13:01:50.531Z,36.42
2022-07-25T13:04:19.634Z,37.18
2022-07-25T13:06:49.063Z,36.86
2022-07-25T13:09:19.355Z,36.95
2022-07-25T13:11:48.117Z,36.20
2022-07-25T13:14:17.478Z,36.37
2022-07-25T13:16:47.371Z,35.83
2022-07-25T13:19:17.951Z,36.05
2022-07-25T13:21:47.060Z,36.41
2022-07-25T13:24:15.977Z,36.57
2022-07-25T13:26:46.818Z,36.19
2022-07-25T13:29:15.663Z,33.96
2022-07-25T13:31:48.415Z,36.07
2022-07-25T13:34:17.383Z,36.24
2022-07-25T13:36:46.527Z,35.98
2022-07-25T13:39:15.558Z,36.96
2022-07-25T13:41:45.791Z,36.51
2022-07-25T13:44:15.546Z,36.64
2022-07-25T13:46:46.346Z,37.23
2022-07-25T13:49:16.294Z,37.35
2022-07-25T13:51:46.158Z,38.09
2022-07-25T13:54:15.265Z,38.47
2022-07-25T13:56:46.079Z,38.85
2022-07-25T13:59:20.936Z,38.96
2022-07-25T14:01:51.142Z,38.97
2022-07-25T14:04:20.138Z,38.60
2022-07-25T14:06:52.467Z,38.48
2022-07-25T14:09:22.771Z,37.85
2022-07-25T14:11:53.354Z,38.00
2022-07-25T14:14:22.764Z,38.29
2022-07-25T14:16:52.102Z,38.10
2022-07-25T14:19:21.218Z,38.37
2022-07-25T14:21:50.200Z,38.16
2022-07-25T14:24:19.537Z,38.62
2022-07-25T14:26:49.326Z,39.06
2022-07-25T14:29:20.109Z,38.50
2022-07-25T14:31:50.175Z,38.24
2022-07-25T14:34:19.435Z,37.22
2022-07-25T14:36:49.031Z,37.44
2022-07-25T14:39:18.428Z,38.00
2022-07-25T14:41:48.296Z,38.18
2022-07-25T14:44:18.911Z,38.08
2022-07-25T14:46:50.126Z,37.98
2022-07-25T14:49:19.636Z,38.31
2022-07-25T14:51:48.770Z,38.36
2022-07-25T14:54:18.406Z,38.31
2022-07-25T14:56:47.530Z,38.54
2022-07-25T14:59:18.034Z,39.02
2022-07-25T15:01:48.368Z,38.73
2022-07-25T15:04:20.018Z,38.02
2022-07-25T15:06:49.069Z,38.39
2022-07-25T15:09:18.161Z,38.24
2022-07-25T15:11:46.980Z,37.95
2022-07-25T15:14:16.476Z,37.63
2022-07-25T15:16:45.749Z,37.87
2022-07-25T15:19:17.326Z,38.23
2022-07-25T15:21:47.318Z,38.59
2022-07-25T15:24:16.506Z,38.45
2022-07-25T15:26:45.959Z,38.81
2022-07-25T15:29:20.671Z,38.58
2022-07-25T15:31:50.153Z,38.74
2022-07-25T15:34:20.989Z,38.61
2022-07-25T15:36:50.280Z,38.63
2022-07-25T15:39:19.722Z,38.48
2022-07-25T15:41:48.763Z,38.67
2022-07-25T15:44:17.993Z,38.43
2022-07-25T15:46:47.949Z,38.69
2022-07-25T15:49:17.298Z,38.92
2022-07-25T15:51:49.141Z,39.07
2022-07-25T15:54:18.626Z,39.37
2022-07-25T15:56:47.875Z,39.11
2022-07-25T15:59:16.917Z,38.66
2022-07-25T16:01:46.247Z,38.59
2022-07-25T16:04:15.975Z,38.33
2022-07-25T16:06:47.106Z,38.28
2022-07-25T16:09:17.619Z,37.22
2022-07-25T16:11:47.216Z,39.13
2022-07-25T16:14:16.711Z,39.33
2022-07-25T16:16:45.666Z,40.44
2022-07-25T16:19:15.014Z,40.88
2022-07-25T16:21:44.031Z,41.58
2022-07-25T16:24:15.685Z,41.64
2022-07-25T16:26:45.294Z,41.96
2022-07-25T16:29:14.714Z,42.44
2022-07-25T16:31:43.712Z,43.23
2022-07-25T16:34:13.438Z,43.46
2022-07-25T16:36:42.615Z,43.94
2022-07-25T16:39:11.749Z,44.27
2022-07-25T16:41:43.153Z,44.95
2022-07-25T16:44:12.063Z,44.93
2022-07-25T16:46:41.378Z,45.25
2022-07-25T16:49:11.330Z,45.38
2022-07-25T16:51:40.758Z,45.40
2022-07-25T16:54:10.242Z,45.72
2022-07-25T16:56:40.021Z,45.96
2022-07-25T16:59:11.360Z,46.32
2022-07-25T17:01:40.779Z,46.28
2022-07-25T17:04:09.950Z,46.92
2022-07-25T17:06:39.511Z,47.34
2022-07-25T17:09:09.140Z,47.62
2022-07-25T17:11:38.712Z,47.85
2022-07-25T17:14:08.052Z,48.02
2022-07-25T17:16:38.550Z,47.84
2022-07-25T17:19:08.332Z,48.08
2022-07-25T17:21:37.690Z,48.43
2022-07-25T17:24:07.494Z,50.25
2022-07-25T17:26:37.605Z,50.58
2022-07-25T17:29:09.220Z,51.59
2022-07-25T17:31:40.291Z,51.65
2022-07-25T17:34:09.614Z,51.40
2022-07-25T17:36:38.842Z,52.17
2022-07-25T17:39:08.600Z,52.52
2022-07-25T17:41:37.870Z,53.13
2022-07-25T17:44:11.614Z,53.92
2022-07-25T17:46:42.869Z,54.38
2022-07-25T17:49:12.367Z,54.83
2022-07-25T17:51:41.580Z,55.46
2022-07-25T17:54:10.885Z,55.33
2022-07-25T17:56:40.187Z,55.81
2022-07-25T17:59:09.591Z,55.98
2022-07-25T18:01:40.216Z,56.41
2022-07-25T18:04:10.858Z,56.62
2022-07-25T18:06:40.104Z,56.80
2022-07-25T18:09:09.531Z,57.64
2022-07-25T18:11:38.831Z,57.71
2022-07-25T18:14:07.954Z,58.02
2022-07-25T18:16:37.177Z,58.59
2022-07-25T18:19:07.071Z,59.01
2022-07-25T18:21:37.514Z,59.04
2022-07-25T18:24:08.240Z,59.16
2022-07-25T18:26:37.502Z,58.83
2022-07-25T18:29:07.549Z,58.99
2022-07-25T18:31:36.645Z,58.51
2022-07-25T18:34:06.596Z,58.04
2022-07-25T18:36:37.819Z,57.95
2022-07-25T18:39:07.917Z,57.69
2022-07-25T18:41:37.574Z,57.65
2022-07-25T18:44:07.344Z,57.62
2022-07-25T18:46:37.169Z,57.74
2022-07-25T18:49:07.465Z,57.94
2022-07-25T18:51:38.378Z,58.13
2022-07-25T18:54:07.864Z,57.98
2022-07-25T18:56:37.006Z,58.12
2022-07-25T18:59:06.516Z,58.02
2022-07-25T19:01:39.471Z,57.82
2022-07-25T19:04:08.931Z,57.62
2022-07-25T19:06:39.564Z,57.89
2022-07-25T19:09:10.621Z,57.61
2022-07-25T19:11:42.329Z,57.38
2022-07-25T19:14:11.764Z,57.12
2022-07-25T19:16:40.944Z,57.35
2022-07-25T19:19:10.226Z,56.97
2022-07-25T19:21:40.564Z,56.61
2022-07-25T19:24:09.871Z,56.93
2022-07-25T19:26:39.057Z,56.83
2022-07-25T19:29:08.689Z,56.57
2022-07-25T19:31:39.247Z,56.58
2022-07-25T19:34:08.742Z,56.21
2022-07-25T19:36:39.454Z,56.53
2022-07-25T19:39:09.193Z,56.56
2022-07-25T19:41:42.190Z,56.92
2022-07-25T19:44:15.396Z,56.70
2022-07-25T19:46:45.073Z,57.09
2022-07-25T19:49:14.084Z,57.20
2022-07-25T19:51:44.333Z,57.39
2022-07-25T19:54:13.509Z,57.59
2022-07-25T19:56:43.857Z,57.59
2022-07-25T19:59:13.051Z,57.77
2022-07-25T20:01:42.240Z,57.70
2022-07-25T20:04:11.425Z,57.82
2022-07-25T20:06:41.147Z,58.01
2022-07-25T20:09:11.642Z,57.69
2022-07-25T20:11:41.673Z,57.36
2022-07-25T20:14:11.876Z,56.78
2022-07-25T20:16:41.661Z,57.00
2022-07-25T20:19:12.196Z,57.01
2022-07-25T20:21:44.016Z,56.75
2022-07-25T20:24:18.096Z,56.72
2022-07-25T20:26:50.435Z,56.70
2022-07-25T20:29:19.278Z,56.54
2022-07-25T20:31:48.171Z,56.63
2022-07-25T20:34:19.357Z,56.61
2022-07-25T20:36:48.146Z,54.77
2022-07-25T20:39:18.344Z,56.52
2022-07-25T20:41:47.093Z,56.59
2022-07-25T20:44:15.975Z,56.84
2022-07-25T20:46:44.967Z,56.79
2022-07-25T20:49:14.556Z,56.65
2022-07-25T20:51:43.587Z,56.82
2022-07-25T20:54:12.931Z,56.76
2022-07-25T20:56:43.579Z,56.94
2022-07-25T20:59:12.752Z,56.63
2022-07-25T21:01:41.700Z,56.78
2022-07-25T21:04:10.278Z,56.75
2022-07-25T21:06:39.295Z,56.87
2022-07-25T21:09:09.004Z,57.03
2022-07-25T21:11:38.250Z,56.92
2022-07-25T21:14:09.003Z,57.23
2022-07-25T21:16:37.943Z,56.90
2022-07-25T21:19:07.036Z,57.04
2022-07-25T21:21:36.348Z,56.76
2022-07-25T21:24:06.604Z,56.98
2022-07-25T21:26:37.202Z,56.99
2022-07-25T21:29:08.465Z,57.18
2022-07-25T21:31:37.734Z,55.63
2022-07-25T21:34:06.679Z,56.73
2022-07-25T21:36:35.568Z,56.86
2022-07-25T21:39:04.741Z,57.38
2022-07-25T21:41:33.908Z,57.53
2022-07-25T21:44:02.765Z,57.39
2022-07-25T21:46:33.001Z,57.52
2022-07-25T21:49:22.905Z,57.47
2022-07-25T21:52:07.965Z,57.82
2022-07-25T21:54:37.986Z,58.26
2022-07-25T21:57:07.161Z,58.45
2022-07-25T21:59:43.560Z,58.40
2022-07-25T22:02:14.229Z,59.00
2022-07-25T22:04:43.064Z,58.78
2022-07-25T22:07:11.785Z,58.81
2022-07-25T22:09:40.945Z,59.11
2022-07-25T22:12:10.564Z,58.90
2022-07-25T22:14:39.505Z,59.13
2022-07-25T22:17:08.597Z,59.09
2022-07-25T22:19:39.089Z,59.19
2022-07-25T22:22:08.737Z,58.97
2022-07-25T22:24:37.450Z,59.17
2022-07-25T22:27:06.620Z,59.32
2022-07-25T22:29:35.388Z,59.80
2022-07-25T22:32:04.186Z,59.79
2022-07-25T22:34:33.296Z,60.23
2022-07-25T22:37:04.082Z,60.95
2022-07-25T22:39:33.045Z,60.64
2022-07-25T22:42:02.108Z,60.99
2022-07-25T22:44:31.129Z,61.05
2022-07-25T22:46:59.897Z,61.32
2022-07-25T22:49:28.659Z,61.64
2022-07-25T22:51:57.345Z,61.56
2022-07-25T22:54:27.640Z,61.95
2022-07-25T22:56:56.556Z,61.95
2022-07-25T22:59:25.415Z,61.98
2022-07-25T23:01:54.129Z,62.08
2022-07-25T23:04:23.094Z,62.27
2022-07-25T23:06:52.065Z,62.13
2022-07-25T23:09:21.192Z,62.25
2022-07-25T23:11:51.414Z,62.55
2022-07-25T23:14:20.294Z,62.50
2022-07-25T23:17:09.131Z,62.62
2022-07-25T23:19:37.834Z,62.62
2022-07-25T23:22:06.940Z,62.89
2022-07-25T23:24:37.910Z,63.27
2022-07-25T23:27:08.537Z,62.58
2022-07-25T23:29:37.769Z,63.00
2022-07-25T23:32:07.581Z,63.08
2022-07-25T23:34:37.065Z,63.18
2022-07-25T23:37:06.231Z,63.28
2022-07-25T23:39:34.949Z,63.25
2022-07-25T23:42:04.460Z,63.46
2022-07-25T23:44:36.472Z,63.49
2022-07-25T23:47:10.258Z,63.32
2022-07-25T23:49:39.638Z,63.54
2022-07-25T23:52:08.670Z,63.59
2022-07-25T23:54:38.916Z,63.51
2022-07-25T23:57:08.669Z,63.42
2022-07-25T23:59:38.939Z,63.81
